sensor_id;sensor_type;location;lat;lon;timestamp;temperature;humidity
52381;DHT22;38310;52.796;6.942;2024-01-10T00:02:06;-2.50;99.90
52381;DHT22;38310;52.796;6.942;2024-01-10T00:04:31;-4.80;99.90
52381;DHT22;38310;52.796;6.942;2024-01-10T00:06:57;-4.80;99.90
52381;DHT22;38310;52.796;6.942;2024-01-10T00:09:23;-2.30;99.90
52381;DHT22;38310;52.796;6.942;2024-01-10T00:11:49;-4.30;99.90
52381;DHT22;38310;52.796;6.942;2024-01-10T00:14:14;-3.80;99.90
52381;DHT22;38310;52.796;6.942;2024-01-10T00:16:42;-4.90;99.90
52381;DHT22;38310;52.796;6.942;2024-01-10T00:19:07;-2.50;99.90
52381;DHT22;38310;52.796;6.942;2024-01-10T00:21:33;-4.60;99.90
52381;DHT22;38310;52.796;6.942;2024-01-10T00:24:00;-4.70;99.90
52381;DHT22;38310;52.796;6.942;2024-01-10T00:26:26;-4.70;99.90
52381;DHT22;38310;52.796;6.942;2024-01-10T00:28:52;-4.60;99.90
52381;DHT22;38310;52.796;6.942;2024-01-10T00:31:18;-3.90;99.90
52381;DHT22;38310;52.796;6.942;2024-01-10T00:33:43;-5.00;99.90
52381;DHT22;38310;52.796;6.942;2024-01-10T00:36:09;-4.50;99.90
52381;DHT22;38310;52.796;6.942;2024-01-10T00:38:36;-4.80;99.90
52381;DHT22;38310;52.796;6.942;2024-01-10T00:41:02;-5.00;99.90
52381;DHT22;38310;52.796;6.942;2024-01-10T00:43:28;-5.00;99.90
52381;DHT22;38310;52.796;6.942;2024-01-10T00:46:00;-4.80;99.90
52381;DHT22;38310;52.796;6.942;2024-01-10T00:48:25;-3.40;99.90
52381;DHT22;38310;52.796;6.942;2024-01-10T00:50:51;-5.10;99.90
52381;DHT22;38310;52.796;6.942;2024-01-10T00:53:17;-5.20;99.90
52381;DHT22;38310;52.796;6.942;2024-01-10T00:55:43;-2.40;99.90
52381;DHT22;38310;52.796;6.942;2024-01-10T00:58:08;-4.90;99.90
52381;DHT22;38310;52.796;6.942;2024-01-10T01:00:34;-4.90;99.90
52381;DHT22;38310;52.796;6.942;2024-01-10T01:03:00;-5.20;99.90
52381;DHT22;38310;52.796;6.942;2024-01-10T01:05:26;-5.10;99.90
52381;DHT22;38310;52.796;6.942;2024-01-10T01:07:52;-5.00;99.90
52381;DHT22;38310;52.796;6.942;2024-01-10T01:10:21;-5.00;99.90
52381;DHT22;38310;52.796;6.942;2024-01-10T01:12:47;-5.00;99.90
52381;DHT22;38310;52.796;6.942;2024-01-10T01:15:13;-2.20;99.90
52381;DHT22;38310;52.796;6.942;2024-01-10T01:17:39;-5.30;99.90
52381;DHT22;38310;52.796;6.942;2024-01-10T01:20:05;-5.10;99.90
52381;DHT22;38310;52.796;6.942;2024-01-10T01:22:31;-5.00;99.90
52381;DHT22;38310;52.796;6.942;2024-01-10T01:24:57;-5.10;99.90
52381;DHT22;38310;52.796;6.942;2024-01-10T01:27:23;-5.20;99.90
52381;DHT22;38310;52.796;6.942;2024-01-10T01:29:49;-5.20;99.90
52381;DHT22;38310;52.796;6.942;2024-01-10T01:32:15;-5.20;99.90
52381;DHT22;38310;52.796;6.942;2024-01-10T01:34:44;-2.50;99.90
52381;DHT22;38310;52.796;6.942;2024-01-10T01:37:10;-5.00;99.90
52381;DHT22;38310;52.796;6.942;2024-01-10T01:39:35;-5.10;99.90
52381;DHT22;38310;52.796;6.942;2024-01-10T01:42:01;-2.60;99.90
52381;DHT22;38310;52.796;6.942;2024-01-10T01:44:27;-3.40;99.90
52381;DHT22;38310;52.796;6.942;2024-01-10T01:46:53;-2.40;99.90
52381;DHT22;38310;52.796;6.942;2024-01-10T01:49:19;-5.40;99.90
52381;DHT22;38310;52.796;6.942;2024-01-10T01:51:46;-2.30;99.90
52381;DHT22;38310;52.796;6.942;2024-01-10T01:54:12;-5.20;99.90
52381;DHT22;38310;52.796;6.942;2024-01-10T01:56:38;-2.60;99.90
52381;DHT22;38310;52.796;6.942;2024-01-10T01:59:05;-5.10;99.90
52381;DHT22;38310;52.796;6.942;2024-01-10T02:01:31;-5.10;99.90
52381;DHT22;38310;52.796;6.942;2024-01-10T02:03:56;-2.80;99.90
52381;DHT22;38310;52.796;6.942;2024-01-10T02:06:22;-4.10;99.90
52381;DHT22;38310;52.796;6.942;2024-01-10T02:08:48;-5.20;99.90
52381;DHT22;38310;52.796;6.942;2024-01-10T02:11:14;-5.20;99.90
52381;DHT22;38310;52.796;6.942;2024-01-10T02:13:40;-5.20;99.90
52381;DHT22;38310;52.796;6.942;2024-01-10T02:16:06;-5.00;99.90
52381;DHT22;38310;52.796;6.942;2024-01-10T02:18:33;-5.50;99.90
52381;DHT22;38310;52.796;6.942;2024-01-10T02:21:01;-5.10;99.90
52381;DHT22;38310;52.796;6.942;2024-01-10T02:23:26;-5.10;99.90
52381;DHT22;38310;52.796;6.942;2024-01-10T02:25:52;-2.60;99.90
52381;DHT22;38310;52.796;6.942;2024-01-10T02:28:18;-5.20;99.90
52381;DHT22;38310;52.796;6.942;2024-01-10T02:30:43;-5.10;99.90
52381;DHT22;38310;52.796;6.942;2024-01-10T02:33:09;-5.10;99.90
52381;DHT22;38310;52.796;6.942;2024-01-10T02:35:35;-4.20;99.90
52381;DHT22;38310;52.796;6.942;2024-01-10T02:38:02;-5.40;99.90
52381;DHT22;38310;52.796;6.942;2024-01-10T02:40:28;-5.30;99.90
52381;DHT22;38310;52.796;6.942;2024-01-10T02:42:54;-5.40;99.90
52381;DHT22;38310;52.796;6.942;2024-01-10T02:45:19;-3.60;99.90
52381;DHT22;38310;52.796;6.942;2024-01-10T02:47:45;-5.30;99.90
52381;DHT22;38310;52.796;6.942;2024-01-10T02:50:11;-5.30;99.90
52381;DHT22;38310;52.796;6.942;2024-01-10T02:52:37;-5.20;99.90
52381;DHT22;38310;52.796;6.942;2024-01-10T02:55:03;-5.40;99.90
52381;DHT22;38310;52.796;6.942;2024-01-10T02:57:29;-5.20;99.90
52381;DHT22;38310;52.796;6.942;2024-01-10T02:59:55;-5.30;99.90
52381;DHT22;38310;52.796;6.942;2024-01-10T03:02:26;-5.30;99.90
52381;DHT22;38310;52.796;6.942;2024-01-10T03:04:52;-5.40;99.90
52381;DHT22;38310;52.796;6.942;2024-01-10T03:07:18;-5.60;99.90
52381;DHT22;38310;52.796;6.942;2024-01-10T03:12:11;-5.30;99.90
52381;DHT22;38310;52.796;6.942;2024-01-10T03:14:37;-3.80;99.90
52381;DHT22;38310;52.796;6.942;2024-01-10T03:17:02;-2.80;99.90
52381;DHT22;38310;52.796;6.942;2024-01-10T03:19:28;-5.30;99.90
52381;DHT22;38310;52.796;6.942;2024-01-10T03:21:54;-5.50;99.90
52381;DHT22;38310;52.796;6.942;2024-01-10T03:24:20;-5.50;99.90
52381;DHT22;38310;52.796;6.942;2024-01-10T03:26:45;-5.50;99.90
52381;DHT22;38310;52.796;6.942;2024-01-10T03:29:11;-5.70;99.90
52381;DHT22;38310;52.796;6.942;2024-01-10T03:31:37;-3.80;99.90
52381;DHT22;38310;52.796;6.942;2024-01-10T03:34:03;-3.50;99.90
52381;DHT22;38310;52.796;6.942;2024-01-10T03:36:29;-5.40;99.90
52381;DHT22;38310;52.796;6.942;2024-01-10T03:38:55;-6.50;99.90
52381;DHT22;38310;52.796;6.942;2024-01-10T03:41:21;-2.90;99.90
52381;DHT22;38310;52.796;6.942;2024-01-10T03:43:47;-6.20;99.90
52381;DHT22;38310;52.796;6.942;2024-01-10T03:46:13;-5.70;99.90
52381;DHT22;38310;52.796;6.942;2024-01-10T03:48:39;-5.70;99.90
52381;DHT22;38310;52.796;6.942;2024-01-10T03:51:17;-5.50;99.90
52381;DHT22;38310;52.796;6.942;2024-01-10T03:53:44;-5.70;99.90
52381;DHT22;38310;52.796;6.942;2024-01-10T03:56:10;-5.80;99.90
52381;DHT22;38310;52.796;6.942;2024-01-10T03:58:35;-5.70;99.90
52381;DHT22;38310;52.796;6.942;2024-01-10T04:01:05;-5.80;99.90
52381;DHT22;38310;52.796;6.942;2024-01-10T04:03:32;-3.50;99.90
52381;DHT22;38310;52.796;6.942;2024-01-10T04:05:58;-5.80;99.90
52381;DHT22;38310;52.796;6.942;2024-01-10T04:08:24;-5.30;99.90
52381;DHT22;38310;52.796;6.942;2024-01-10T04:10:50;-4.80;99.90
52381;DHT22;38310;52.796;6.942;2024-01-10T04:13:15;-5.80;99.90
52381;DHT22;38310;52.796;6.942;2024-01-10T04:15:41;-5.80;99.90
52381;DHT22;38310;52.796;6.942;2024-01-10T04:18:07;-5.90;99.90
52381;DHT22;38310;52.796;6.942;2024-01-10T04:20:33;-5.90;99.90
52381;DHT22;38310;52.796;6.942;2024-01-10T04:22:58;-3.60;99.90
52381;DHT22;38310;52.796;6.942;2024-01-10T04:25:24;-5.70;99.90
52381;DHT22;38310;52.796;6.942;2024-01-10T04:27:50;-5.70;99.90
52381;DHT22;38310;52.796;6.942;2024-01-10T04:30:19;-5.80;99.90
52381;DHT22;38310;52.796;6.942;2024-01-10T04:32:44;-5.90;99.90
52381;DHT22;38310;52.796;6.942;2024-01-10T04:35:10;-6.10;99.90
52381;DHT22;38310;52.796;6.942;2024-01-10T04:37:36;-3.00;99.90
52381;DHT22;38310;52.796;6.942;2024-01-10T04:40:02;-5.80;99.90
52381;DHT22;38310;52.796;6.942;2024-01-10T04:42:30;-5.60;99.90
52381;DHT22;38310;52.796;6.942;2024-01-10T04:44:56;-5.60;99.90
52381;DHT22;38310;52.796;6.942;2024-01-10T04:47:21;-5.00;99.90
52381;DHT22;38310;52.796;6.942;2024-01-10T04:49:47;-3.40;99.90
52381;DHT22;38310;52.796;6.942;2024-01-10T04:52:13;-5.70;99.90
52381;DHT22;38310;52.796;6.942;2024-01-10T04:54:39;-5.10;99.90
52381;DHT22;38310;52.796;6.942;2024-01-10T04:57:05;-6.00;99.90
52381;DHT22;38310;52.796;6.942;2024-01-10T04:59:30;-4.70;99.90
52381;DHT22;38310;52.796;6.942;2024-01-10T05:01:56;-3.50;99.90
52381;DHT22;38310;52.796;6.942;2024-01-10T05:04:22;-5.70;99.90
52381;DHT22;38310;52.796;6.942;2024-01-10T05:06:48;-5.60;99.90
52381;DHT22;38310;52.796;6.942;2024-01-10T05:09:14;-5.80;99.90
52381;DHT22;38310;52.796;6.942;2024-01-10T05:11:40;-5.30;99.90
52381;DHT22;38310;52.796;6.942;2024-01-10T05:14:06;-5.30;99.90
52381;DHT22;38310;52.796;6.942;2024-01-10T05:16:32;-4.70;99.90
52381;DHT22;38310;52.796;6.942;2024-01-10T05:19:01;-5.70;99.90
52381;DHT22;38310;52.796;6.942;2024-01-10T05:21:29;-5.70;99.90
52381;DHT22;38310;52.796;6.942;2024-01-10T05:23:55;-3.30;99.90
52381;DHT22;38310;52.796;6.942;2024-01-10T05:26:21;-5.70;99.90
52381;DHT22;38310;52.796;6.942;2024-01-10T05:28:47;-5.30;99.90
52381;DHT22;38310;52.796;6.942;2024-01-10T05:31:13;-5.00;99.90
52381;DHT22;38310;52.796;6.942;2024-01-10T05:33:38;-5.60;99.90
52381;DHT22;38310;52.796;6.942;2024-01-10T05:36:04;-5.90;99.90
52381;DHT22;38310;52.796;6.942;2024-01-10T05:38:33;-5.60;99.90
52381;DHT22;38310;52.796;6.942;2024-01-10T05:40:59;-5.70;99.90
52381;DHT22;38310;52.796;6.942;2024-01-10T05:43:24;-5.90;99.90
52381;DHT22;38310;52.796;6.942;2024-01-10T05:45:50;-5.50;99.90
52381;DHT22;38310;52.796;6.942;2024-01-10T05:48:16;-5.90;99.90
52381;DHT22;38310;52.796;6.942;2024-01-10T05:50:42;-5.80;99.90
52381;DHT22;38310;52.796;6.942;2024-01-10T05:53:08;-5.40;99.90
52381;DHT22;38310;52.796;6.942;2024-01-10T05:55:35;-5.90;99.90
52381;DHT22;38310;52.796;6.942;2024-01-10T05:58:02;-5.90;99.90
52381;DHT22;38310;52.796;6.942;2024-01-10T06:00:28;-5.70;99.90
52381;DHT22;38310;52.796;6.942;2024-01-10T06:02:53;-3.30;99.90
52381;DHT22;38310;52.796;6.942;2024-01-10T06:05:19;-5.90;99.90
52381;DHT22;38310;52.796;6.942;2024-01-10T06:07:45;-5.90;99.90
52381;DHT22;38310;52.796;6.942;2024-01-10T06:10:11;-6.10;99.90
52381;DHT22;38310;52.796;6.942;2024-01-10T06:12:37;-6.00;99.90
52381;DHT22;38310;52.796;6.942;2024-01-10T06:15:04;-5.90;99.90
52381;DHT22;38310;52.796;6.942;2024-01-10T06:17:31;-5.80;99.90
52381;DHT22;38310;52.796;6.942;2024-01-10T06:19:57;-5.80;99.90
52381;DHT22;38310;52.796;6.942;2024-01-10T06:22:25;-3.80;99.90
52381;DHT22;38310;52.796;6.942;2024-01-10T06:24:51;-6.10;99.90
52381;DHT22;38310;52.796;6.942;2024-01-10T06:27:17;-5.90;99.90
52381;DHT22;38310;52.796;6.942;2024-01-10T06:29:44;-6.00;99.90
52381;DHT22;38310;52.796;6.942;2024-01-10T06:32:13;-5.80;99.90
52381;DHT22;38310;52.796;6.942;2024-01-10T06:34:40;-5.90;99.90
52381;DHT22;38310;52.796;6.942;2024-01-10T06:37:07;-4.70;99.90
52381;DHT22;38310;52.796;6.942;2024-01-10T06:39:35;-4.10;99.90
52381;DHT22;38310;52.796;6.942;2024-01-10T06:42:01;-3.50;99.90
52381;DHT22;38310;52.796;6.942;2024-01-10T06:44:30;-6.80;99.90
52381;DHT22;38310;52.796;6.942;2024-01-10T06:46:55;-3.60;99.90
52381;DHT22;38310;52.796;6.942;2024-01-10T06:49:21;-6.00;99.90
52381;DHT22;38310;52.796;6.942;2024-01-10T06:51:47;-5.60;99.90
52381;DHT22;38310;52.796;6.942;2024-01-10T06:54:13;-5.90;99.90
52381;DHT22;38310;52.796;6.942;2024-01-10T06:56:39;-6.00;99.90
52381;DHT22;38310;52.796;6.942;2024-01-10T06:59:07;-6.10;99.90
52381;DHT22;38310;52.796;6.942;2024-01-10T07:01:32;-3.80;99.90
52381;DHT22;38310;52.796;6.942;2024-01-10T07:03:58;-6.00;99.90
52381;DHT22;38310;52.796;6.942;2024-01-10T07:06:25;-6.20;99.90
52381;DHT22;38310;52.796;6.942;2024-01-10T07:08:51;-6.30;99.90
52381;DHT22;38310;52.796;6.942;2024-01-10T07:11:24;-6.00;99.90
52381;DHT22;38310;52.796;6.942;2024-01-10T07:13:52;-5.90;99.90
52381;DHT22;38310;52.796;6.942;2024-01-10T07:16:17;-5.60;99.90
52381;DHT22;38310;52.796;6.942;2024-01-10T07:18:44;-4.70;99.90
52381;DHT22;38310;52.796;6.942;2024-01-10T07:21:10;-4.90;99.90
52381;DHT22;38310;52.796;6.942;2024-01-10T07:23:36;-6.10;99.90
52381;DHT22;38310;52.796;6.942;2024-01-10T07:26:06;-3.50;99.90
52381;DHT22;38310;52.796;6.942;2024-01-10T07:28:32;-6.20;99.90
52381;DHT22;38310;52.796;6.942;2024-01-10T07:30:58;-6.30;99.90
52381;DHT22;38310;52.796;6.942;2024-01-10T07:33:24;-5.00;99.90
52381;DHT22;38310;52.796;6.942;2024-01-10T07:35:49;-4.90;99.90
52381;DHT22;38310;52.796;6.942;2024-01-10T07:38:18;-6.00;99.90
52381;DHT22;38310;52.796;6.942;2024-01-10T07:40:44;-5.80;99.90
52381;DHT22;38310;52.796;6.942;2024-01-10T07:43:15;-6.00;99.90
52381;DHT22;38310;52.796;6.942;2024-01-10T07:45:41;-5.20;99.90
52381;DHT22;38310;52.796;6.942;2024-01-10T07:48:07;-5.00;99.90
52381;DHT22;38310;52.796;6.942;2024-01-10T07:50:33;-6.20;99.90
52381;DHT22;38310;52.796;6.942;2024-01-10T07:52:58;-3.50;99.90
52381;DHT22;38310;52.796;6.942;2024-01-10T07:55:25;-6.00;99.90
52381;DHT22;38310;52.796;6.942;2024-01-10T07:57:50;-5.10;99.90
52381;DHT22;38310;52.796;6.942;2024-01-10T08:00:17;-3.60;99.90
52381;DHT22;38310;52.796;6.942;2024-01-10T08:02:45;-8.00;99.90
52381;DHT22;38310;52.796;6.942;2024-01-10T08:05:11;-6.10;99.90
52381;DHT22;38310;52.796;6.942;2024-01-10T08:07:38;-5.70;99.90
52381;DHT22;38310;52.796;6.942;2024-01-10T08:10:08;-5.60;99.90
52381;DHT22;38310;52.796;6.942;2024-01-10T08:12:39;-5.80;99.90
52381;DHT22;38310;52.796;6.942;2024-01-10T08:15:07;-6.20;99.90
52381;DHT22;38310;52.796;6.942;2024-01-10T08:17:33;-5.80;99.90
52381;DHT22;38310;52.796;6.942;2024-01-10T08:20:00;-5.80;99.90
52381;DHT22;38310;52.796;6.942;2024-01-10T08:22:29;-5.90;99.90
52381;DHT22;38310;52.796;6.942;2024-01-10T08:25:01;-5.80;99.90
52381;DHT22;38310;52.796;6.942;2024-01-10T08:27:28;-6.70;99.90
52381;DHT22;38310;52.796;6.942;2024-01-10T08:29:54;-5.70;99.90
52381;DHT22;38310;52.796;6.942;2024-01-10T08:32:19;-3.60;99.90
52381;DHT22;38310;52.796;6.942;2024-01-10T08:34:47;-5.90;99.90
52381;DHT22;38310;52.796;6.942;2024-01-10T08:37:14;-5.80;99.90
52381;DHT22;38310;52.796;6.942;2024-01-10T08:39:43;-3.00;99.90
52381;DHT22;38310;52.796;6.942;2024-01-10T08:42:09;-5.60;99.90
52381;DHT22;38310;52.796;6.942;2024-01-10T08:44:35;-5.70;99.90
52381;DHT22;38310;52.796;6.942;2024-01-10T08:47:01;-7.60;99.90
52381;DHT22;38310;52.796;6.942;2024-01-10T08:49:27;-5.70;99.90
52381;DHT22;38310;52.796;6.942;2024-01-10T08:51:52;-5.60;99.90
52381;DHT22;38310;52.796;6.942;2024-01-10T08:54:19;-5.50;99.90
52381;DHT22;38310;52.796;6.942;2024-01-10T08:56:46;-5.50;99.90
52381;DHT22;38310;52.796;6.942;2024-01-10T08:59:14;-5.60;99.90
52381;DHT22;38310;52.796;6.942;2024-01-10T09:01:40;-5.20;99.90
52381;DHT22;38310;52.796;6.942;2024-01-10T09:04:06;-5.30;99.90
52381;DHT22;38310;52.796;6.942;2024-01-10T09:06:35;-3.30;99.90
52381;DHT22;38310;52.796;6.942;2024-01-10T09:09:03;-2.90;99.90
52381;DHT22;38310;52.796;6.942;2024-01-10T09:11:29;-5.20;99.90
52381;DHT22;38310;52.796;6.942;2024-01-10T09:13:56;-5.60;99.90
52381;DHT22;38310;52.796;6.942;2024-01-10T09:16:22;-5.30;99.90
52381;DHT22;38310;52.796;6.942;2024-01-10T09:18:54;-5.10;99.90
52381;DHT22;38310;52.796;6.942;2024-01-10T09:21:23;-2.50;99.90
52381;DHT22;38310;52.796;6.942;2024-01-10T09:23:49;-5.00;99.90
52381;DHT22;38310;52.796;6.942;2024-01-10T09:26:17;-4.70;99.90
52381;DHT22;38310;52.796;6.942;2024-01-10T09:28:43;-4.80;99.90
52381;DHT22;38310;52.796;6.942;2024-01-10T09:31:10;-4.70;99.90
52381;DHT22;38310;52.796;6.942;2024-01-10T09:33:36;-4.60;99.90
52381;DHT22;38310;52.796;6.942;2024-01-10T09:36:02;-4.20;99.90
52381;DHT22;38310;52.796;6.942;2024-01-10T09:38:29;-4.50;99.90
52381;DHT22;38310;52.796;6.942;2024-01-10T09:40:59;-4.60;99.90
52381;DHT22;38310;52.796;6.942;2024-01-10T09:43:29;-3.60;99.90
52381;DHT22;38310;52.796;6.942;2024-01-10T09:45:58;-2.30;99.90
52381;DHT22;38310;52.796;6.942;2024-01-10T09:48:25;-4.40;99.90
52381;DHT22;38310;52.796;6.942;2024-01-10T09:50:51;-4.30;99.90
52381;DHT22;38310;52.796;6.942;2024-01-10T09:53:24;-1.80;99.90
52381;DHT22;38310;52.796;6.942;2024-01-10T09:55:52;-4.40;99.90
52381;DHT22;38310;52.796;6.942;2024-01-10T09:58:23;-4.30;99.90
52381;DHT22;38310;52.796;6.942;2024-01-10T10:00:49;-1.50;99.90
52381;DHT22;38310;52.796;6.942;2024-01-10T10:03:21;-3.80;99.90
52381;DHT22;38310;52.796;6.942;2024-01-10T10:05:48;-3.80;99.90
52381;DHT22;38310;52.796;6.942;2024-01-10T10:08:14;-2.00;99.90
52381;DHT22;38310;52.796;6.942;2024-01-10T10:10:41;-3.70;99.90
52381;DHT22;38310;52.796;6.942;2024-01-10T10:13:26;-3.70;99.90
52381;DHT22;38310;52.796;6.942;2024-01-10T10:16:03;-3.50;99.90
52381;DHT22;38310;52.796;6.942;2024-01-10T10:18:30;-3.40;99.90
52381;DHT22;38310;52.796;6.942;2024-01-10T10:21:11;-1.00;99.90
52381;DHT22;38310;52.796;6.942;2024-01-10T10:23:42;-3.30;99.90
52381;DHT22;38310;52.796;6.942;2024-01-10T10:26:16;-3.00;99.90
52381;DHT22;38310;52.796;6.942;2024-01-10T10:28:51;-3.10;99.90
52381;DHT22;38310;52.796;6.942;2024-01-10T10:31:18;-3.00;99.90
52381;DHT22;38310;52.796;6.942;2024-01-10T10:33:45;-3.10;99.90
52381;DHT22;38310;52.796;6.942;2024-01-10T10:36:15;-0.40;99.90
52381;DHT22;38310;52.796;6.942;2024-01-10T10:38:41;-2.80;99.90
52381;DHT22;38310;52.796;6.942;2024-01-10T10:41:07;-1.70;99.90
52381;DHT22;38310;52.796;6.942;2024-01-10T10:43:37;-2.60;99.90
52381;DHT22;38310;52.796;6.942;2024-01-10T10:46:10;-2.70;99.90
52381;DHT22;38310;52.796;6.942;2024-01-10T10:48:38;-2.60;99.90
52381;DHT22;38310;52.796;6.942;2024-01-10T10:51:23;-2.50;99.90
52381;DHT22;38310;52.796;6.942;2024-01-10T10:53:54;-2.40;99.90
52381;DHT22;38310;52.796;6.942;2024-01-10T10:56:20;-1.00;99.90
52381;DHT22;38310;52.796;6.942;2024-01-10T10:58:46;-3.10;99.90
52381;DHT22;38310;52.796;6.942;2024-01-10T11:01:13;-2.10;99.90
52381;DHT22;38310;52.796;6.942;2024-01-10T11:03:40;-2.00;99.90
52381;DHT22;38310;52.796;6.942;2024-01-10T11:06:08;-1.90;99.90
52381;DHT22;38310;52.796;6.942;2024-01-10T11:08:48;-1.60;99.90
52381;DHT22;38310;52.796;6.942;2024-01-10T11:19:53;-1.30;99.90
52381;DHT22;38310;52.796;6.942;2024-01-10T11:25:11;-1.20;99.90
52381;DHT22;38310;52.796;6.942;2024-01-10T11:27:37;-1.20;99.90
52381;DHT22;38310;52.796;6.942;2024-01-10T11:30:03;0.70;99.90
52381;DHT22;38310;52.796;6.942;2024-01-10T11:32:32;-1.00;99.90
52381;DHT22;38310;52.796;6.942;2024-01-10T11:35:00;-0.90;99.90
52381;DHT22;38310;52.796;6.942;2024-01-10T11:37:39;-0.90;99.90
52381;DHT22;38310;52.796;6.942;2024-01-10T11:40:08;-0.60;99.90
52381;DHT22;38310;52.796;6.942;2024-01-10T11:42:45;-0.40;99.90
52381;DHT22;38310;52.796;6.942;2024-01-10T11:47:57;-1.70;99.90
52381;DHT22;38310;52.796;6.942;2024-01-10T11:50:23;0.40;99.90
52381;DHT22;38310;52.796;6.942;2024-01-10T11:52:53;0.90;99.90
52381;DHT22;38310;52.796;6.942;2024-01-10T11:55:51;1.00;99.90
52381;DHT22;38310;52.796;6.942;2024-01-10T11:58:23;3.10;99.90
52381;DHT22;38310;52.796;6.942;2024-01-10T12:00:49;2.10;99.90
52381;DHT22;38310;52.796;6.942;2024-01-10T12:03:18;2.80;99.90
52381;DHT22;38310;52.796;6.942;2024-01-10T12:05:45;2.70;99.90
52381;DHT22;38310;52.796;6.942;2024-01-10T12:08:11;2.20;99.90
52381;DHT22;38310;52.796;6.942;2024-01-10T12:10:37;3.90;99.90
52381;DHT22;38310;52.796;6.942;2024-01-10T12:13:03;3.60;99.90
52381;DHT22;38310;52.796;6.942;2024-01-10T12:15:29;2.90;99.90
52381;DHT22;38310;52.796;6.942;2024-01-10T12:17:55;4.40;99.90
52381;DHT22;38310;52.796;6.942;2024-01-10T12:20:21;4.00;99.90
52381;DHT22;38310;52.796;6.942;2024-01-10T12:22:53;3.80;99.90
52381;DHT22;38310;52.796;6.942;2024-01-10T12:25:19;5.40;99.90
52381;DHT22;38310;52.796;6.942;2024-01-10T12:27:45;4.50;99.90
52381;DHT22;38310;52.796;6.942;2024-01-10T12:30:11;4.10;99.90
52381;DHT22;38310;52.796;6.942;2024-01-10T12:32:37;5.00;99.90
52381;DHT22;38310;52.796;6.942;2024-01-10T12:35:04;5.50;99.90
52381;DHT22;38310;52.796;6.942;2024-01-10T12:37:30;5.20;99.90
52381;DHT22;38310;52.796;6.942;2024-01-10T12:39:57;5.80;99.90
52381;DHT22;38310;52.796;6.942;2024-01-10T12:42:23;6.20;99.90
52381;DHT22;38310;52.796;6.942;2024-01-10T12:44:50;6.90;99.90
52381;DHT22;38310;52.796;6.942;2024-01-10T12:47:22;5.80;99.90
52381;DHT22;38310;52.796;6.942;2024-01-10T12:49:49;6.20;99.90
52381;DHT22;38310;52.796;6.942;2024-01-10T12:52:15;6.90;99.90
52381;DHT22;38310;52.796;6.942;2024-01-10T12:54:41;5.90;99.90
52381;DHT22;38310;52.796;6.942;2024-01-10T12:57:07;5.90;99.90
52381;DHT22;38310;52.796;6.942;2024-01-10T12:59:33;5.90;99.90
52381;DHT22;38310;52.796;6.942;2024-01-10T13:02:00;5.90;99.90
52381;DHT22;38310;52.796;6.942;2024-01-10T13:04:25;6.50;99.90
52381;DHT22;38310;52.796;6.942;2024-01-10T13:06:52;6.70;99.90
52381;DHT22;38310;52.796;6.942;2024-01-10T13:09:17;6.30;99.90
52381;DHT22;38310;52.796;6.942;2024-01-10T13:11:43;6.00;99.90
52381;DHT22;38310;52.796;6.942;2024-01-10T13:14:11;6.40;99.10
52381;DHT22;38310;52.796;6.942;2024-01-10T13:16:37;7.10;99.50
52381;DHT22;38310;52.796;6.942;2024-01-10T13:19:03;6.50;99.40
52381;DHT22;38310;52.796;6.942;2024-01-10T13:21:29;5.30;99.30
52381;DHT22;38310;52.796;6.942;2024-01-10T13:23:55;5.80;98.90
52381;DHT22;38310;52.796;6.942;2024-01-10T13:26:20;6.20;98.70
52381;DHT22;38310;52.796;6.942;2024-01-10T13:28:46;5.80;98.80
52381;DHT22;38310;52.796;6.942;2024-01-10T13:31:12;6.40;98.80
52381;DHT22;38310;52.796;6.942;2024-01-10T13:33:38;6.30;99.20
52381;DHT22;38310;52.796;6.942;2024-01-10T13:36:06;6.10;98.50
52381;DHT22;38310;52.796;6.942;2024-01-10T13:38:32;6.00;98.00
52381;DHT22;38310;52.796;6.942;2024-01-10T13:40:57;6.30;98.30
52381;DHT22;38310;52.796;6.942;2024-01-10T13:43:23;5.80;98.10
52381;DHT22;38310;52.796;6.942;2024-01-10T13:45:49;5.70;98.20
52381;DHT22;38310;52.796;6.942;2024-01-10T13:48:15;5.50;98.90
52381;DHT22;38310;52.796;6.942;2024-01-10T13:50:42;6.00;99.40
52381;DHT22;38310;52.796;6.942;2024-01-10T13:53:08;4.70;98.70
52381;DHT22;38310;52.796;6.942;2024-01-10T13:55:33;4.30;99.10
52381;DHT22;38310;52.796;6.942;2024-01-10T13:58:01;3.90;99.90
52381;DHT22;38310;52.796;6.942;2024-01-10T14:00:27;3.70;99.90
52381;DHT22;38310;52.796;6.942;2024-01-10T14:02:53;4.50;99.90
52381;DHT22;38310;52.796;6.942;2024-01-10T14:05:27;3.50;99.90
52381;DHT22;38310;52.796;6.942;2024-01-10T14:07:53;3.00;99.90
52381;DHT22;38310;52.796;6.942;2024-01-10T14:10:19;2.80;99.90
52381;DHT22;38310;52.796;6.942;2024-01-10T14:12:44;2.60;99.90
52381;DHT22;38310;52.796;6.942;2024-01-10T14:15:11;4.10;99.90
52381;DHT22;38310;52.796;6.942;2024-01-10T14:17:37;2.90;99.90
52381;DHT22;38310;52.796;6.942;2024-01-10T14:20:03;2.10;99.90
52381;DHT22;38310;52.796;6.942;2024-01-10T14:22:29;2.00;99.90
52381;DHT22;38310;52.796;6.942;2024-01-10T14:24:55;1.80;99.90
52381;DHT22;38310;52.796;6.942;2024-01-10T14:27:20;2.30;99.90
52381;DHT22;38310;52.796;6.942;2024-01-10T14:29:46;1.50;99.90
52381;DHT22;38310;52.796;6.942;2024-01-10T14:32:13;1.40;99.90
52381;DHT22;38310;52.796;6.942;2024-01-10T14:34:41;1.90;99.90
52381;DHT22;38310;52.796;6.942;2024-01-10T14:37:08;1.10;99.90
52381;DHT22;38310;52.796;6.942;2024-01-10T14:39:35;-0.20;99.90
52381;DHT22;38310;52.796;6.942;2024-01-10T14:42:05;2.50;99.90
52381;DHT22;38310;52.796;6.942;2024-01-10T14:44:32;0.90;99.90
52381;DHT22;38310;52.796;6.942;2024-01-10T14:46:59;0.80;99.90
52381;DHT22;38310;52.796;6.942;2024-01-10T14:49:25;0.70;99.90
52381;DHT22;38310;52.796;6.942;2024-01-10T14:51:50;0.60;99.90
52381;DHT22;38310;52.796;6.942;2024-01-10T14:54:16;0.50;99.90
52381;DHT22;38310;52.796;6.942;2024-01-10T14:56:43;0.50;99.90
52381;DHT22;38310;52.796;6.942;2024-01-10T14:59:10;0.40;99.90
52381;DHT22;38310;52.796;6.942;2024-01-10T15:01:37;1.50;99.90
52381;DHT22;38310;52.796;6.942;2024-01-10T15:04:03;0.40;99.90
52381;DHT22;38310;52.796;6.942;2024-01-10T15:06:29;0.20;99.90
52381;DHT22;38310;52.796;6.942;2024-01-10T15:08:55;0.50;99.90
52381;DHT22;38310;52.796;6.942;2024-01-10T15:11:20;0.00;99.90
52381;DHT22;38310;52.796;6.942;2024-01-10T15:13:46;-0.10;99.90
52381;DHT22;38310;52.796;6.942;2024-01-10T15:16:13;-0.20;99.90
52381;DHT22;38310;52.796;6.942;2024-01-10T15:18:38;-0.30;99.90
52381;DHT22;38310;52.796;6.942;2024-01-10T15:21:04;0.20;99.90
52381;DHT22;38310;52.796;6.942;2024-01-10T15:23:31;-0.50;99.90
52381;DHT22;38310;52.796;6.942;2024-01-10T15:25:56;-0.50;99.90
52381;DHT22;38310;52.796;6.942;2024-01-10T15:28:24;-0.50;99.90
52381;DHT22;38310;52.796;6.942;2024-01-10T15:30:50;-0.60;99.90
52381;DHT22;38310;52.796;6.942;2024-01-10T15:33:16;0.80;99.90
52381;DHT22;38310;52.796;6.942;2024-01-10T15:35:43;-0.10;99.90
52381;DHT22;38310;52.796;6.942;2024-01-10T15:38:09;-0.90;99.90
52381;DHT22;38310;52.796;6.942;2024-01-10T15:40:35;-1.00;99.90
52381;DHT22;38310;52.796;6.942;2024-01-10T15:43:01;-1.00;99.90
52381;DHT22;38310;52.796;6.942;2024-01-10T15:45:27;1.00;99.90
52381;DHT22;38310;52.796;6.942;2024-01-10T15:47:53;-1.10;99.90
52381;DHT22;38310;52.796;6.942;2024-01-10T15:50:19;-1.30;99.90